sensor_id;sensor_type;location;lat;lon;timestamp;temperature;humidity
7290;DHT22;63176;52.678;13.250;2023-04-03T00:01:15;2.80;99.10
7290;DHT22;63176;52.678;13.250;2023-04-03T00:03:41;2.80;98.90
7290;DHT22;63176;52.678;13.250;2023-04-03T00:06:08;2.80;98.80
7290;DHT22;63176;52.678;13.250;2023-04-03T00:08:36;2.80;98.60
7290;DHT22;63176;52.678;13.250;2023-04-03T00:11:03;2.70;98.60
7290;DHT22;63176;52.678;13.250;2023-04-03T00:13:29;2.70;99.20
7290;DHT22;63176;52.678;13.250;2023-04-03T00:15:55;2.70;99.20
7290;DHT22;63176;52.678;13.250;2023-04-03T00:18:21;2.70;98.40
7290;DHT22;63176;52.678;13.250;2023-04-03T00:20:47;2.70;98.60
7290;DHT22;63176;52.678;13.250;2023-04-03T00:23:13;2.70;99.60
7290;DHT22;63176;52.678;13.250;2023-04-03T00:25:39;2.70;99.00
7290;DHT22;63176;52.678;13.250;2023-04-03T00:28:05;2.60;98.80
7290;DHT22;63176;52.678;13.250;2023-04-03T00:30:31;2.60;99.00
7290;DHT22;63176;52.678;13.250;2023-04-03T00:32:57;2.60;99.20
7290;DHT22;63176;52.678;13.250;2023-04-03T00:35:24;2.60;98.20
7290;DHT22;63176;52.678;13.250;2023-04-03T00:37:54;2.60;98.50
7290;DHT22;63176;52.678;13.250;2023-04-03T00:40:22;2.50;98.00
7290;DHT22;63176;52.678;13.250;2023-04-03T00:42:50;2.40;98.40
7290;DHT22;63176;52.678;13.250;2023-04-03T00:45:35;2.50;98.00
7290;DHT22;63176;52.678;13.250;2023-04-03T00:48:03;2.50;98.50
7290;DHT22;63176;52.678;13.250;2023-04-03T00:50:34;2.40;98.10
7290;DHT22;63176;52.678;13.250;2023-04-03T00:53:01;2.50;99.00
7290;DHT22;63176;52.678;13.250;2023-04-03T00:55:27;2.30;98.10
7290;DHT22;63176;52.678;13.250;2023-04-03T00:57:55;2.30;98.50
7290;DHT22;63176;52.678;13.250;2023-04-03T01:00:22;2.20;98.40
7290;DHT22;63176;52.678;13.250;2023-04-03T01:02:50;2.20;98.40
7290;DHT22;63176;52.678;13.250;2023-04-03T01:05:17;2.20;98.00
7290;DHT22;63176;52.678;13.250;2023-04-03T01:07:43;2.10;98.50
7290;DHT22;63176;52.678;13.250;2023-04-03T01:10:12;2.00;97.40
7290;DHT22;63176;52.678;13.250;2023-04-03T01:12:41;2.00;98.10
7290;DHT22;63176;52.678;13.250;2023-04-03T01:15:11;1.90;98.10
7290;DHT22;63176;52.678;13.250;2023-04-03T01:17:46;1.80;97.60
7290;DHT22;63176;52.678;13.250;2023-04-03T01:28:05;1.20;96.70
7290;DHT22;63176;52.678;13.250;2023-04-03T01:30:34;1.20;97.10
7290;DHT22;63176;52.678;13.250;2023-04-03T01:33:01;1.10;96.60
7290;DHT22;63176;52.678;13.250;2023-04-03T01:35:27;1.00;96.60
7290;DHT22;63176;52.678;13.250;2023-04-03T01:37:53;1.10;96.50
7290;DHT22;63176;52.678;13.250;2023-04-03T01:40:19;0.90;96.30
7290;DHT22;63176;52.678;13.250;2023-04-03T01:42:44;0.90;96.90
7290;DHT22;63176;52.678;13.250;2023-04-03T01:45:11;0.90;97.40
7290;DHT22;63176;52.678;13.250;2023-04-03T01:47:36;0.90;97.90
7290;DHT22;63176;52.678;13.250;2023-04-03T01:50:02;0.90;97.20
7290;DHT22;63176;52.678;13.250;2023-04-03T01:52:29;0.90;98.00
7290;DHT22;63176;52.678;13.250;2023-04-03T01:54:55;0.80;98.00
7290;DHT22;63176;52.678;13.250;2023-04-03T01:57:21;0.90;98.40
7290;DHT22;63176;52.678;13.250;2023-04-03T01:59:46;0.90;98.20
7290;DHT22;63176;52.678;13.250;2023-04-03T02:02:12;0.90;98.80
7290;DHT22;63176;52.678;13.250;2023-04-03T02:04:40;0.90;98.90
7290;DHT22;63176;52.678;13.250;2023-04-03T02:07:06;0.90;99.30
7290;DHT22;63176;52.678;13.250;2023-04-03T02:09:31;0.80;98.10
7290;DHT22;63176;52.678;13.250;2023-04-03T02:11:57;0.80;98.40
7290;DHT22;63176;52.678;13.250;2023-04-03T02:14:23;0.80;99.70
7290;DHT22;63176;52.678;13.250;2023-04-03T02:16:49;0.80;99.90
7290;DHT22;63176;52.678;13.250;2023-04-03T02:19:15;0.90;99.90
7290;DHT22;63176;52.678;13.250;2023-04-03T02:21:41;1.00;99.90
7290;DHT22;63176;52.678;13.250;2023-04-03T02:24:07;1.00;99.90
7290;DHT22;63176;52.678;13.250;2023-04-03T02:26:32;1.10;99.90
7290;DHT22;63176;52.678;13.250;2023-04-03T02:28:58;1.00;99.90
7290;DHT22;63176;52.678;13.250;2023-04-03T02:31:24;1.00;99.50
7290;DHT22;63176;52.678;13.250;2023-04-03T02:33:49;0.90;99.30
7290;DHT22;63176;52.678;13.250;2023-04-03T02:36:16;0.80;99.50
7290;DHT22;63176;52.678;13.250;2023-04-03T02:38:42;0.80;99.30
7290;DHT22;63176;52.678;13.250;2023-04-03T02:41:10;0.70;98.90
7290;DHT22;63176;52.678;13.250;2023-04-03T02:43:37;0.60;99.30
7290;DHT22;63176;52.678;13.250;2023-04-03T02:46:03;0.60;99.90
7290;DHT22;63176;52.678;13.250;2023-04-03T02:48:28;0.60;99.70
7290;DHT22;63176;52.678;13.250;2023-04-03T02:50:55;0.70;99.90
7290;DHT22;63176;52.678;13.250;2023-04-03T02:53:20;0.60;99.90
7290;DHT22;63176;52.678;13.250;2023-04-03T02:55:46;0.60;99.90
7290;DHT22;63176;52.678;13.250;2023-04-03T02:58:12;0.60;99.90
7290;DHT22;63176;52.678;13.250;2023-04-03T03:00:38;0.60;99.90
7290;DHT22;63176;52.678;13.250;2023-04-03T03:03:04;0.50;99.70
7290;DHT22;63176;52.678;13.250;2023-04-03T03:05:30;0.50;99.90
7290;DHT22;63176;52.678;13.250;2023-04-03T03:07:56;0.40;99.90
7290;DHT22;63176;52.678;13.250;2023-04-03T03:10:22;0.40;99.80
7290;DHT22;63176;52.678;13.250;2023-04-03T03:12:48;0.40;99.80
7290;DHT22;63176;52.678;13.250;2023-04-03T03:15:14;0.40;99.90
7290;DHT22;63176;52.678;13.250;2023-04-03T03:17:42;0.40;99.90
7290;DHT22;63176;52.678;13.250;2023-04-03T03:20:08;0.40;99.80
7290;DHT22;63176;52.678;13.250;2023-04-03T03:22:35;0.30;99.90
7290;DHT22;63176;52.678;13.250;2023-04-03T03:25:02;0.40;99.90
7290;DHT22;63176;52.678;13.250;2023-04-03T03:27:28;0.40;99.90
7290;DHT22;63176;52.678;13.250;2023-04-03T03:29:54;0.50;99.90
7290;DHT22;63176;52.678;13.250;2023-04-03T03:32:19;0.40;99.90
7290;DHT22;63176;52.678;13.250;2023-04-03T03:34:45;0.40;99.80
7290;DHT22;63176;52.678;13.250;2023-04-03T03:37:11;0.40;99.90
7290;DHT22;63176;52.678;13.250;2023-04-03T03:39:37;0.40;99.90
7290;DHT22;63176;52.678;13.250;2023-04-03T03:42:03;0.40;99.60
7290;DHT22;63176;52.678;13.250;2023-04-03T03:44:29;0.30;99.80
7290;DHT22;63176;52.678;13.250;2023-04-03T03:46:55;0.30;99.90
7290;DHT22;63176;52.678;13.250;2023-04-03T03:49:21;0.30;99.90
7290;DHT22;63176;52.678;13.250;2023-04-03T03:51:47;0.20;99.90
7290;DHT22;63176;52.678;13.250;2023-04-03T03:54:13;0.10;99.70
7290;DHT22;63176;52.678;13.250;2023-04-03T03:56:39;0.10;99.60
7290;DHT22;63176;52.678;13.250;2023-04-03T03:59:05;0.20;99.90
7290;DHT22;63176;52.678;13.250;2023-04-03T04:01:31;0.20;99.90
7290;DHT22;63176;52.678;13.250;2023-04-03T04:03:57;0.10;99.40
7290;DHT22;63176;52.678;13.250;2023-04-03T04:06:23;0.10;99.90
7290;DHT22;63176;52.678;13.250;2023-04-03T04:08:49;0.10;99.60
7290;DHT22;63176;52.678;13.250;2023-04-03T04:11:14;0.10;99.60
7290;DHT22;63176;52.678;13.250;2023-04-03T04:13:40;0.10;99.90
7290;DHT22;63176;52.678;13.250;2023-04-03T04:16:06;0.00;99.10
7290;DHT22;63176;52.678;13.250;2023-04-03T04:18:32;-0.10;98.80
7290;DHT22;63176;52.678;13.250;2023-04-03T04:20:58;-0.10;98.80
7290;DHT22;63176;52.678;13.250;2023-04-03T04:23:23;-0.10;99.90
7290;DHT22;63176;52.678;13.250;2023-04-03T04:25:50;-0.10;99.80
7290;DHT22;63176;52.678;13.250;2023-04-03T04:28:16;-0.20;99.10
7290;DHT22;63176;52.678;13.250;2023-04-03T04:30:42;-0.20;99.60
7290;DHT22;63176;52.678;13.250;2023-04-03T04:33:08;-0.20;99.40
7290;DHT22;63176;52.678;13.250;2023-04-03T04:35:33;-0.20;99.70
7290;DHT22;63176;52.678;13.250;2023-04-03T04:37:59;-0.30;99.20
7290;DHT22;63176;52.678;13.250;2023-04-03T04:40:26;-0.20;99.60
7290;DHT22;63176;52.678;13.250;2023-04-03T04:42:52;-0.30;99.10
7290;DHT22;63176;52.678;13.250;2023-04-03T04:45:18;-0.30;99.20
7290;DHT22;63176;52.678;13.250;2023-04-03T04:47:44;-0.30;99.50
7290;DHT22;63176;52.678;13.250;2023-04-03T04:50:10;-0.30;98.70
7290;DHT22;63176;52.678;13.250;2023-04-03T04:52:37;-0.30;99.90
7290;DHT22;63176;52.678;13.250;2023-04-03T04:55:03;-0.30;99.00
7290;DHT22;63176;52.678;13.250;2023-04-03T04:57:29;-0.40;99.60
7290;DHT22;63176;52.678;13.250;2023-04-03T04:59:54;-0.30;99.90
7290;DHT22;63176;52.678;13.250;2023-04-03T05:02:20;-0.40;99.70
7290;DHT22;63176;52.678;13.250;2023-04-03T05:04:46;-0.30;99.90
7290;DHT22;63176;52.678;13.250;2023-04-03T05:07:12;-0.30;99.90
7290;DHT22;63176;52.678;13.250;2023-04-03T05:09:37;-0.30;99.90
7290;DHT22;63176;52.678;13.250;2023-04-03T05:12:03;-0.20;99.90
7290;DHT22;63176;52.678;13.250;2023-04-03T05:14:29;-0.20;99.90
7290;DHT22;63176;52.678;13.250;2023-04-03T05:16:55;-0.10;99.90
7290;DHT22;63176;52.678;13.250;2023-04-03T05:19:21;-0.10;99.90
7290;DHT22;63176;52.678;13.250;2023-04-03T05:21:47;0.00;99.90
7290;DHT22;63176;52.678;13.250;2023-04-03T05:24:14;-0.10;99.90
7290;DHT22;63176;52.678;13.250;2023-04-03T05:26:40;0.10;99.90
7290;DHT22;63176;52.678;13.250;2023-04-03T05:29:06;0.20;99.90
7290;DHT22;63176;52.678;13.250;2023-04-03T05:31:31;0.30;99.90
7290;DHT22;63176;52.678;13.250;2023-04-03T05:33:57;0.50;99.90
7290;DHT22;63176;52.678;13.250;2023-04-03T05:36:23;0.70;99.90
7290;DHT22;63176;52.678;13.250;2023-04-03T05:38:48;0.80;99.90
7290;DHT22;63176;52.678;13.250;2023-04-03T05:41:15;1.00;99.90
7290;DHT22;63176;52.678;13.250;2023-04-03T05:43:41;1.20;99.90
7290;DHT22;63176;52.678;13.250;2023-04-03T05:46:17;1.40;99.90
7290;DHT22;63176;52.678;13.250;2023-04-03T05:48:44;1.50;99.90
7290;DHT22;63176;52.678;13.250;2023-04-03T05:51:20;1.70;99.90
7290;DHT22;63176;52.678;13.250;2023-04-03T05:53:47;1.80;99.90
7290;DHT22;63176;52.678;13.250;2023-04-03T05:56:14;1.90;99.90
7290;DHT22;63176;52.678;13.250;2023-04-03T05:58:40;2.10;99.90
7290;DHT22;63176;52.678;13.250;2023-04-03T06:01:05;2.20;99.90
7290;DHT22;63176;52.678;13.250;2023-04-03T06:03:31;2.30;99.90
7290;DHT22;63176;52.678;13.250;2023-04-03T06:05:57;2.40;99.90
7290;DHT22;63176;52.678;13.250;2023-04-03T06:08:23;2.40;99.90
7290;DHT22;63176;52.678;13.250;2023-04-03T06:10:49;2.60;99.90
7290;DHT22;63176;52.678;13.250;2023-04-03T06:13:16;2.70;99.90
7290;DHT22;63176;52.678;13.250;2023-04-03T06:15:42;2.70;99.90
7290;DHT22;63176;52.678;13.250;2023-04-03T06:18:08;2.80;99.90
7290;DHT22;63176;52.678;13.250;2023-04-03T06:20:34;2.80;99.90
7290;DHT22;63176;52.678;13.250;2023-04-03T06:23:00;2.90;99.90
7290;DHT22;63176;52.678;13.250;2023-04-03T06:25:25;3.00;99.90
7290;DHT22;63176;52.678;13.250;2023-04-03T06:27:52;3.10;99.90
7290;DHT22;63176;52.678;13.250;2023-04-03T06:30:17;3.10;99.90
7290;DHT22;63176;52.678;13.250;2023-04-03T06:32:43;3.20;99.90
7290;DHT22;63176;52.678;13.250;2023-04-03T06:35:10;3.20;99.90
7290;DHT22;63176;52.678;13.250;2023-04-03T06:37:36;3.30;99.90
7290;DHT22;63176;52.678;13.250;2023-04-03T06:40:02;3.30;99.90
7290;DHT22;63176;52.678;13.250;2023-04-03T06:42:28;3.40;99.90
7290;DHT22;63176;52.678;13.250;2023-04-03T06:44:54;3.50;99.90
7290;DHT22;63176;52.678;13.250;2023-04-03T06:47:19;3.50;99.90
7290;DHT22;63176;52.678;13.250;2023-04-03T06:49:45;3.60;99.90
7290;DHT22;63176;52.678;13.250;2023-04-03T06:52:12;3.60;99.90
7290;DHT22;63176;52.678;13.250;2023-04-03T06:54:39;3.60;99.90
7290;DHT22;63176;52.678;13.250;2023-04-03T06:57:05;3.70;99.90
7290;DHT22;63176;52.678;13.250;2023-04-03T06:59:31;3.80;99.90
7290;DHT22;63176;52.678;13.250;2023-04-03T07:01:56;3.80;99.90
7290;DHT22;63176;52.678;13.250;2023-04-03T07:04:24;4.00;99.90
7290;DHT22;63176;52.678;13.250;2023-04-03T07:06:50;4.10;99.90
7290;DHT22;63176;52.678;13.250;2023-04-03T07:09:16;4.20;99.90
7290;DHT22;63176;52.678;13.250;2023-04-03T07:11:41;4.30;99.90
7290;DHT22;63176;52.678;13.250;2023-04-03T07:14:07;4.40;99.90
7290;DHT22;63176;52.678;13.250;2023-04-03T07:16:34;4.50;99.90
7290;DHT22;63176;52.678;13.250;2023-04-03T07:19:00;4.60;99.90
7290;DHT22;63176;52.678;13.250;2023-04-03T07:21:27;4.60;99.90
7290;DHT22;63176;52.678;13.250;2023-04-03T07:23:53;4.70;99.90
7290;DHT22;63176;52.678;13.250;2023-04-03T07:26:19;4.80;99.90
7290;DHT22;63176;52.678;13.250;2023-04-03T07:28:47;4.70;99.90
7290;DHT22;63176;52.678;13.250;2023-04-03T07:31:14;4.70;99.90
7290;DHT22;63176;52.678;13.250;2023-04-03T07:33:41;4.70;99.90
7290;DHT22;63176;52.678;13.250;2023-04-03T07:36:08;4.70;99.90
7290;DHT22;63176;52.678;13.250;2023-04-03T07:38:35;4.80;99.90
7290;DHT22;63176;52.678;13.250;2023-04-03T07:41:01;4.90;99.30
7290;DHT22;63176;52.678;13.250;2023-04-03T07:43:27;4.90;99.80
7290;DHT22;63176;52.678;13.250;2023-04-03T07:45:53;4.90;99.90
7290;DHT22;63176;52.678;13.250;2023-04-03T07:48:24;5.10;99.80
7290;DHT22;63176;52.678;13.250;2023-04-03T07:50:51;5.10;99.80
7290;DHT22;63176;52.678;13.250;2023-04-03T07:53:18;5.20;99.90
7290;DHT22;63176;52.678;13.250;2023-04-03T07:55:46;5.30;99.90
7290;DHT22;63176;52.678;13.250;2023-04-03T07:58:16;5.50;99.90
7290;DHT22;63176;52.678;13.250;2023-04-03T08:00:42;5.60;99.90
7290;DHT22;63176;52.678;13.250;2023-04-03T08:03:10;5.70;99.90
7290;DHT22;63176;52.678;13.250;2023-04-03T08:05:38;5.80;99.90
7290;DHT22;63176;52.678;13.250;2023-04-03T08:08:05;6.00;99.90
7290;DHT22;63176;52.678;13.250;2023-04-03T08:10:32;6.00;99.90
7290;DHT22;63176;52.678;13.250;2023-04-03T08:12:58;6.00;98.50
7290;DHT22;63176;52.678;13.250;2023-04-03T08:15:24;5.90;98.20
7290;DHT22;63176;52.678;13.250;2023-04-03T08:17:50;5.90;99.20
7290;DHT22;63176;52.678;13.250;2023-04-03T08:20:16;6.00;97.00
7290;DHT22;63176;52.678;13.250;2023-04-03T08:22:42;6.10;98.40
7290;DHT22;63176;52.678;13.250;2023-04-03T08:25:08;6.10;99.90
7290;DHT22;63176;52.678;13.250;2023-04-03T08:27:34;6.20;99.90
7290;DHT22;63176;52.678;13.250;2023-04-03T08:30:01;6.30;99.90
7290;DHT22;63176;52.678;13.250;2023-04-03T08:32:26;6.50;99.90
7290;DHT22;63176;52.678;13.250;2023-04-03T08:34:52;6.60;99.90
7290;DHT22;63176;52.678;13.250;2023-04-03T08:37:18;6.60;98.30
7290;DHT22;63176;52.678;13.250;2023-04-03T08:39:44;6.50;98.30
7290;DHT22;63176;52.678;13.250;2023-04-03T08:45:06;6.30;97.40
7290;DHT22;63176;52.678;13.250;2023-04-03T08:50:17;6.00;96.70
7290;DHT22;63176;52.678;13.250;2023-04-03T08:52:53;6.00;95.90
7290;DHT22;63176;52.678;13.250;2023-04-03T08:55:33;5.90;95.30
7290;DHT22;63176;52.678;13.250;2023-04-03T08:58:09;5.90;95.60
7290;DHT22;63176;52.678;13.250;2023-04-03T09:01:06;5.80;93.90
7290;DHT22;63176;52.678;13.250;2023-04-03T09:03:39;5.80;94.20
7290;DHT22;63176;52.678;13.250;2023-04-03T09:06:16;5.80;94.80
7290;DHT22;63176;52.678;13.250;2023-04-03T09:11:23;5.90;95.60
7290;DHT22;63176;52.678;13.250;2023-04-03T09:14:02;6.00;95.70
7290;DHT22;63176;52.678;13.250;2023-04-03T09:22:16;6.70;95.90
7290;DHT22;63176;52.678;13.250;2023-04-03T09:24:46;6.80;95.80
7290;DHT22;63176;52.678;13.250;2023-04-03T09:27:13;6.90;95.30
7290;DHT22;63176;52.678;13.250;2023-04-03T09:29:43;7.00;95.40
7290;DHT22;63176;52.678;13.250;2023-04-03T09:32:32;7.00;94.70
7290;DHT22;63176;52.678;13.250;2023-04-03T09:35:18;6.90;94.50
7290;DHT22;63176;52.678;13.250;2023-04-03T09:37:47;6.80;93.70
7290;DHT22;63176;52.678;13.250;2023-04-03T09:42:59;6.70;92.10
7290;DHT22;63176;52.678;13.250;2023-04-03T09:45:27;6.80;93.10
7290;DHT22;63176;52.678;13.250;2023-04-03T09:50:56;6.90;92.00
7290;DHT22;63176;52.678;13.250;2023-04-03T09:53:28;7.10;92.80
7290;DHT22;63176;52.678;13.250;2023-04-03T09:55:54;7.10;91.50
7290;DHT22;63176;52.678;13.250;2023-04-03T09:58:38;7.10;90.30
7290;DHT22;63176;52.678;13.250;2023-04-03T10:01:06;7.40;92.70
7290;DHT22;63176;52.678;13.250;2023-04-03T10:03:44;7.80;94.00
7290;DHT22;63176;52.678;13.250;2023-04-03T10:06:32;7.90;92.20
7290;DHT22;63176;52.678;13.250;2023-04-03T10:09:25;8.00;93.20
7290;DHT22;63176;52.678;13.250;2023-04-03T10:14:27;8.10;93.00
7290;DHT22;63176;52.678;13.250;2023-04-03T10:19:53;8.80;96.60
7290;DHT22;63176;52.678;13.250;2023-04-03T10:25:19;9.70;95.80
7290;DHT22;63176;52.678;13.250;2023-04-03T10:48:14;9.00;93.50
7290;DHT22;63176;52.678;13.250;2023-04-03T10:54:00;9.90;94.30
7290;DHT22;63176;52.678;13.250;2023-04-03T10:56:41;9.70;94.60
7290;DHT22;63176;52.678;13.250;2023-04-03T11:02:30;9.10;93.00
7290;DHT22;63176;52.678;13.250;2023-04-03T11:05:13;8.90;91.30
7290;DHT22;63176;52.678;13.250;2023-04-03T11:07:51;9.10;93.30
7290;DHT22;63176;52.678;13.250;2023-04-03T11:13:17;9.20;91.00
7290;DHT22;63176;52.678;13.250;2023-04-03T11:15:44;9.00;91.10
7290;DHT22;63176;52.678;13.250;2023-04-03T11:18:25;8.80;89.20
7290;DHT22;63176;52.678;13.250;2023-04-03T11:21:29;8.50;84.90
7290;DHT22;63176;52.678;13.250;2023-04-03T11:23:58;8.30;86.30
7290;DHT22;63176;52.678;13.250;2023-04-03T11:26:30;8.20;83.90
7290;DHT22;63176;52.678;13.250;2023-04-03T11:29:11;8.00;82.10
7290;DHT22;63176;52.678;13.250;2023-04-03T11:34:41;7.70;82.10
7290;DHT22;63176;52.678;13.250;2023-04-03T11:37:31;7.50;78.20
7290;DHT22;63176;52.678;13.250;2023-04-03T11:40:27;7.50;76.30
7290;DHT22;63176;52.678;13.250;2023-04-03T11:43:07;7.40;75.90
7290;DHT22;63176;52.678;13.250;2023-04-03T11:45:53;7.50;73.40
7290;DHT22;63176;52.678;13.250;2023-04-03T11:53:50;7.40;76.30
7290;DHT22;63176;52.678;13.250;2023-04-03T12:01:54;7.50;77.00
7290;DHT22;63176;52.678;13.250;2023-04-03T12:04:23;7.50;77.70
7290;DHT22;63176;52.678;13.250;2023-04-03T12:14:54;7.50;75.70
7290;DHT22;63176;52.678;13.250;2023-04-03T12:17:23;7.50;74.40
7290;DHT22;63176;52.678;13.250;2023-04-03T12:19:51;7.50;75.50
7290;DHT22;63176;52.678;13.250;2023-04-03T12:22:19;7.50;74.80
7290;DHT22;63176;52.678;13.250;2023-04-03T12:24:51;7.50;76.90
7290;DHT22;63176;52.678;13.250;2023-04-03T12:27:30;7.50;77.00
7290;DHT22;63176;52.678;13.250;2023-04-03T12:30:12;7.50;76.30
7290;DHT22;63176;52.678;13.250;2023-04-03T12:33:04;7.50;80.30
7290;DHT22;63176;52.678;13.250;2023-04-03T12:35:38;7.50;75.90
7290;DHT22;63176;52.678;13.250;2023-04-03T12:41:25;7.50;75.70
7290;DHT22;63176;52.678;13.250;2023-04-03T12:46:51;7.60;78.10
7290;DHT22;63176;52.678;13.250;2023-04-03T12:51:52;7.70;74.70
7290;DHT22;63176;52.678;13.250;2023-04-03T12:54:35;7.90;77.00
7290;DHT22;63176;52.678;13.250;2023-04-03T12:57:24;8.10;78.90
7290;DHT22;63176;52.678;13.250;2023-04-03T12:59:50;8.20;77.90
7290;DHT22;63176;52.678;13.250;2023-04-03T13:02:29;8.30;78.80
7290;DHT22;63176;52.678;13.250;2023-04-03T13:05:06;8.30;79.50
7290;DHT22;63176;52.678;13.250;2023-04-03T13:07:35;8.40;77.90
7290;DHT22;63176;52.678;13.250;2023-04-03T13:12:32;8.00;73.00
7290;DHT22;63176;52.678;13.250;2023-04-03T13:15:00;7.80;71.40
7290;DHT22;63176;52.678;13.250;2023-04-03T13:17:29;7.70;72.40
7290;DHT22;63176;52.678;13.250;2023-04-03T13:20:13;7.60;73.90
7290;DHT22;63176;52.678;13.250;2023-04-03T13:22:53;7.60;71.70
7290;DHT22;63176;52.678;13.250;2023-04-03T13:25:21;7.30;70.60
7290;DHT22;63176;52.678;13.250;2023-04-03T13:27:48;7.30;70.50
7290;DHT22;63176;52.678;13.250;2023-04-03T13:30:28;7.20;70.00
7290;DHT22;63176;52.678;13.250;2023-04-03T13:32:56;7.20;70.20
7290;DHT22;63176;52.678;13.250;2023-04-03T13:35:31;7.00;69.40
7290;DHT22;63176;52.678;13.250;2023-04-03T13:38:01;7.10;69.00
7290;DHT22;63176;52.678;13.250;2023-04-03T13:40:28;7.00;72.00
7290;DHT22;63176;52.678;13.250;2023-04-03T13:43:04;7.00;68.40
7290;DHT22;63176;52.678;13.250;2023-04-03T13:45:32;7.10;69.30
7290;DHT22;63176;52.678;13.250;2023-04-03T13:48:17;7.10;68.60
7290;DHT22;63176;52.678;13.250;2023-04-03T13:51:02;7.10;69.00
7290;DHT22;63176;52.678;13.250;2023-04-03T13:53:32;7.20;69.80
7290;DHT22;63176;52.678;13.250;2023-04-03T13:56:08;7.30;69.60
7290;DHT22;63176;52.678;13.250;2023-04-03T13:58:36;7.30;71.90
7290;DHT22;63176;52.678;13.250;2023-04-03T14:01:19;7.30;69.80
7290;DHT22;63176;52.678;13.250;2023-04-03T14:04:19;7.30;70.60
7290;DHT22;63176;52.678;13.250;2023-04-03T14:06:46;7.40;71.30
7290;DHT22;63176;52.678;13.250;2023-04-03T14:09:12;7.30;70.00
7290;DHT22;63176;52.678;13.250;2023-04-03T14:11:40;7.20;71.00
7290;DHT22;63176;52.678;13.250;2023-04-03T14:14:13;7.10;69.90
7290;DHT22;63176;52.678;13.250;2023-04-03T14:16:41;7.10;70.90
7290;DHT22;63176;52.678;13.250;2023-04-03T14:19:19;7.10;69.60
7290;DHT22;63176;52.678;13.250;2023-04-03T14:21:45;7.20;70.00
7290;DHT22;63176;52.678;13.250;2023-04-03T14:24:11;7.00;70.80
7290;DHT22;63176;52.678;13.250;2023-04-03T14:26:37;6.90;72.00
7290;DHT22;63176;52.678;13.250;2023-04-03T14:29:03;7.00;70.90
7290;DHT22;63176;52.678;13.250;2023-04-03T14:31:29;7.00;70.10
7290;DHT22;63176;52.678;13.250;2023-04-03T14:33:54;7.10;71.30
7290;DHT22;63176;52.678;13.250;2023-04-03T14:36:25;7.60;78.50
7290;DHT22;63176;52.678;13.250;2023-04-03T14:38:52;7.90;75.80
7290;DHT22;63176;52.678;13.250;2023-04-03T14:41:20;8.30;80.30
7290;DHT22;63176;52.678;13.250;2023-04-03T14:43:47;8.50;78.00
7290;DHT22;63176;52.678;13.250;2023-04-03T14:46:16;8.30;78.80
7290;DHT22;63176;52.678;13.250;2023-04-03T14:48:42;8.40;78.30
7290;DHT22;63176;52.678;13.250;2023-04-03T14:51:11;8.30;76.70
7290;DHT22;63176;52.678;13.250;2023-04-03T14:53:38;8.30;74.10
7290;DHT22;63176;52.678;13.250;2023-04-03T14:56:21;8.00;72.40
7290;DHT22;63176;52.678;13.250;2023-04-03T14:58:49;7.70;71.70
7290;DHT22;63176;52.678;13.250;2023-04-03T15:01:18;7.50;69.00
7290;DHT22;63176;52.678;13.250;2023-04-03T15:03:44;7.40;68.60
7290;DHT22;63176;52.678;13.250;2023-04-03T15:06:14;7.20;67.10
7290;DHT22;63176;52.678;13.250;2023-04-03T15:08:41;7.10;69.60
7290;DHT22;63176;52.678;13.250;2023-04-03T15:11:09;7.10;69.50
7290;DHT22;63176;52.678;13.250;2023-04-03T15:13:36;6.90;67.20
7290;DHT22;63176;52.678;13.250;2023-04-03T15:16:01;7.10;67.80
7290;DHT22;63176;52.678;13.250;2023-04-03T15:18:31;6.90;66.70
7290;DHT22;63176;52.678;13.250;2023-04-03T15:20:58;6.70;67.50
7290;DHT22;63176;52.678;13.250;2023-04-03T15:23:23;6.80;69.10
7290;DHT22;63176;52.678;13.250;2023-04-03T15:25:54;6.60;69.40
7290;DHT22;63176;52.678;13.250;2023-04-03T15:30:52;6.40;69.30
7290;DHT22;63176;52.678;13.250;2023-04-03T15:33:18;6.60;70.10
7290;DHT22;63176;52.678;13.250;2023-04-03T15:35:44;6.30;68.80
7290;DHT22;63176;52.678;13.250;2023-04-03T15:38:10;6.10;68.90
7290;DHT22;63176;52.678;13.250;2023-04-03T15:40:36;6.20;67.90
7290;DHT22;63176;52.678;13.250;2023-04-03T15:43:02;6.10;67.30
7290;DHT22;63176;52.678;13.250;2023-04-03T15:45:29;6.10;68.30
7290;DHT22;63176;52.678;13.250;2023-04-03T15:47:56;6.20;68.70
7290;DHT22;63176;52.678;13.250;2023-04-03T15:50:21;6.00;68.90
7290;DHT22;63176;52.678;13.250;2023-04-03T15:52:50;6.10;69.50
7290;DHT22;63176;52.678;13.250;2023-04-03T15:55:21;6.50;70.10
7290;DHT22;63176;52.678;13.250;2023-04-03T15:57:47;6.50;66.80
7290;DHT22;63176;52.678;13.250;2023-04-03T16:00:13;6.20;67.80
7290;DHT22;63176;52.678;13.250;2023-04-03T16:02:39;6.30;68.70
7290;DHT22;63176;52.678;13.250;2023-04-03T16:05:05;6.50;70.60
7290;DHT22;63176;52.678;13.250;2023-04-03T16:07:31;7.20;78.10
7290;DHT22;63176;52.678;13.250;2023-04-03T16:09:57;8.10;81.10
7290;DHT22;63176;52.678;13.250;2023-04-03T16:12:23;9.20;87.20
7290;DHT22;63176;52.678;13.250;2023-04-03T16:14:48;9.80;88.70
7290;DHT22;63176;52.678;13.250;2023-04-03T16:17:14;10.20;88.10
7290;DHT22;63176;52.678;13.250;2023-04-03T16:19:40;9.90;86.40
7290;DHT22;63176;52.678;13.250;2023-04-03T16:22:06;9.20;83.60
7290;DHT22;63176;52.678;13.250;2023-04-03T16:24:31;8.50;80.60
7290;DHT22;63176;52.678;13.250;2023-04-03T16:26:57;8.00;78.30
7290;DHT22;63176;52.678;13.250;2023-04-03T16:29:23;7.60;76.60
7290;DHT22;63176;52.678;13.250;2023-04-03T16:31:49;7.20;75.00
7290;DHT22;63176;52.678;13.250;2023-04-03T16:34:15;7.00;72.40
7290;DHT22;63176;52.678;13.250;2023-04-03T16:36:41;6.70;71.70
7290;DHT22;63176;52.678;13.250;2023-04-03T16:39:07;6.40;70.30
7290;DHT22;63176;52.678;13.250;2023-04-03T16:41:35;6.30;72.30
7290;DHT22;63176;52.678;13.250;2023-04-03T16:44:00;6.10;71.50
7290;DHT22;63176;52.678;13.250;2023-04-03T16:46:27;6.00;69.10
7290;DHT22;63176;52.678;13.250;2023-04-03T16:48:53;5.90;69.60
7290;DHT22;63176;52.678;13.250;2023-04-03T16:51:18;5.90;70.40
7290;DHT22;63176;52.678;13.250;2023-04-03T16:53:44;5.70;70.70
7290;DHT22;63176;52.678;13.250;2023-04-03T16:56:09;5.70;69.60
7290;DHT22;63176;52.678;13.250;2023-04-03T16:58:35;5.70;71.00
7290;DHT22;63176;52.678;13.250;2023-04-03T17:01:16;5.90;70.70
7290;DHT22;63176;52.678;13.250;2023-04-03T17:03:41;5.70;70.60
7290;DHT22;63176;52.678;13.250;2023-04-03T17:06:07;5.70;71.10
7290;DHT22;63176;52.678;13.250;2023-04-03T17:08:39;5.60;72.40
7290;DHT22;63176;52.678;13.250;2023-04-03T17:11:05;5.60;73.20
7290;DHT22;63176;52.678;13.250;2023-04-03T17:13:31;5.90;73.60
7290;DHT22;63176;52.678;13.250;2023-04-03T17:15:59;5.70;73.60
7290;DHT22;63176;52.678;13.250;2023-04-03T17:18:27;5.70;91.30
7290;DHT22;63176;52.678;13.250;2023-04-03T17:20:52;5.60;73.20
7290;DHT22;63176;52.678;13.250;2023-04-03T17:23:18;5.60;72.00
7290;DHT22;63176;52.678;13.250;2023-04-03T17:25:43;5.70;72.40
7290;DHT22;63176;52.678;13.250;2023-04-03T17:28:09;5.40;72.20
7290;DHT22;63176;52.678;13.250;2023-04-03T17:30:35;5.40;74.00
7290;DHT22;63176;52.678;13.250;2023-04-03T17:33:00;5.70;74.30
7290;DHT22;63176;52.678;13.250;2023-04-03T17:35:26;5.60;73.50